sensor_id;sensor_type;location;lat;lon;timestamp;P1;durP1;ratioP1;P2;durP2;ratioP2
29294;SDS011;16305;48.566;8.846;2022-10-31T00:02:20;9.40;;;5.17;;
29294;SDS011;16305;48.566;8.846;2022-10-31T00:04:45;11.50;;;4.97;;
29294;SDS011;16305;48.566;8.846;2022-10-31T00:07:11;8.47;;;5.77;;
29294;SDS011;16305;48.566;8.846;2022-10-31T00:09:36;7.93;;;5.50;;
29294;SDS011;16305;48.566;8.846;2022-10-31T00:12:02;11.50;;;7.00;;
29294;SDS011;16305;48.566;8.846;2022-10-31T00:14:27;10.07;;;7.23;;
29294;SDS011;16305;48.566;8.846;2022-10-31T00:16:53;5.60;;;5.00;;
29294;SDS011;16305;48.566;8.846;2022-10-31T00:19:18;12.47;;;5.60;;
29294;SDS011;16305;48.566;8.846;2022-10-31T00:21:44;8.07;;;5.43;;
29294;SDS011;16305;48.566;8.846;2022-10-31T00:24:10;10.10;;;5.57;;
29294;SDS011;16305;48.566;8.846;2022-10-31T00:26:36;7.93;;;5.53;;
29294;SDS011;16305;48.566;8.846;2022-10-31T00:29:01;9.00;;;5.50;;
29294;SDS011;16305;48.566;8.846;2022-10-31T00:31:27;8.90;;;5.93;;
29294;SDS011;16305;48.566;8.846;2022-10-31T00:33:53;11.17;;;6.20;;
29294;SDS011;16305;48.566;8.846;2022-10-31T00:36:19;7.70;;;5.63;;
29294;SDS011;16305;48.566;8.846;2022-10-31T00:38:45;10.57;;;5.80;;
29294;SDS011;16305;48.566;8.846;2022-10-31T00:41:12;8.47;;;5.60;;
29294;SDS011;16305;48.566;8.846;2022-10-31T00:43:39;8.70;;;5.60;;
29294;SDS011;16305;48.566;8.846;2022-10-31T00:46:05;9.00;;;5.20;;
29294;SDS011;16305;48.566;8.846;2022-10-31T00:48:31;9.30;;;5.00;;
29294;SDS011;16305;48.566;8.846;2022-10-31T00:50:56;8.37;;;4.63;;
29294;SDS011;16305;48.566;8.846;2022-10-31T00:53:22;10.83;;;6.10;;
29294;SDS011;16305;48.566;8.846;2022-10-31T00:55:47;9.63;;;5.00;;
29294;SDS011;16305;48.566;8.846;2022-10-31T00:58:13;10.33;;;6.57;;
29294;SDS011;16305;48.566;8.846;2022-10-31T01:00:39;7.63;;;5.60;;
29294;SDS011;16305;48.566;8.846;2022-10-31T01:03:05;12.73;;;6.50;;
29294;SDS011;16305;48.566;8.846;2022-10-31T01:05:30;11.33;;;6.53;;
29294;SDS011;16305;48.566;8.846;2022-10-31T01:07:56;9.43;;;5.80;;
29294;SDS011;16305;48.566;8.846;2022-10-31T01:10:22;10.30;;;5.93;;
29294;SDS011;16305;48.566;8.846;2022-10-31T01:12:48;7.60;;;5.30;;
29294;SDS011;16305;48.566;8.846;2022-10-31T01:15:15;11.20;;;5.57;;
29294;SDS011;16305;48.566;8.846;2022-10-31T01:17:46;8.80;;;5.53;;
29294;SDS011;16305;48.566;8.846;2022-10-31T01:20:13;9.87;;;5.50;;
29294;SDS011;16305;48.566;8.846;2022-10-31T01:22:39;10.60;;;6.13;;
29294;SDS011;16305;48.566;8.846;2022-10-31T01:25:05;11.30;;;6.07;;
29294;SDS011;16305;48.566;8.846;2022-10-31T01:27:32;7.57;;;5.23;;
29294;SDS011;16305;48.566;8.846;2022-10-31T01:29:57;7.57;;;5.30;;
29294;SDS011;16305;48.566;8.846;2022-10-31T01:32:23;10.77;;;5.50;;
29294;SDS011;16305;48.566;8.846;2022-10-31T01:34:49;9.30;;;5.73;;
29294;SDS011;16305;48.566;8.846;2022-10-31T01:37:14;10.80;;;5.73;;
29294;SDS011;16305;48.566;8.846;2022-10-31T01:39:40;7.10;;;5.17;;
29294;SDS011;16305;48.566;8.846;2022-10-31T01:42:05;7.00;;;4.30;;
29294;SDS011;16305;48.566;8.846;2022-10-31T01:47:15;10.03;;;6.47;;
29294;SDS011;16305;48.566;8.846;2022-10-31T01:50:02;14.83;;;6.80;;
29294;SDS011;16305;48.566;8.846;2022-10-31T01:52:44;9.33;;;6.33;;
29294;SDS011;16305;48.566;8.846;2022-10-31T01:55:16;10.53;;;5.90;;
29294;SDS011;16305;48.566;8.846;2022-10-31T01:57:48;7.67;;;6.07;;
29294;SDS011;16305;48.566;8.846;2022-10-31T02:00:18;10.63;;;6.37;;
29294;SDS011;16305;48.566;8.846;2022-10-31T02:02:45;8.73;;;5.87;;
29294;SDS011;16305;48.566;8.846;2022-10-31T02:05:15;8.60;;;6.30;;
29294;SDS011;16305;48.566;8.846;2022-10-31T02:08:01;11.87;;;6.90;;
29294;SDS011;16305;48.566;8.846;2022-10-31T02:10:42;11.07;;;7.07;;
29294;SDS011;16305;48.566;8.846;2022-10-31T02:13:09;10.47;;;6.63;;
29294;SDS011;16305;48.566;8.846;2022-10-31T02:15:36;9.50;;;6.80;;
29294;SDS011;16305;48.566;8.846;2022-10-31T02:18:03;8.23;;;5.67;;
29294;SDS011;16305;48.566;8.846;2022-10-31T02:20:32;11.27;;;5.87;;
29294;SDS011;16305;48.566;8.846;2022-10-31T02:23:27;8.53;;;5.60;;
29294;SDS011;16305;48.566;8.846;2022-10-31T02:33:45;16.63;;;7.20;;
29294;SDS011;16305;48.566;8.846;2022-10-31T02:41:46;9.47;;;6.67;;
29294;SDS011;16305;48.566;8.846;2022-10-31T02:47:01;10.37;;;6.87;;
29294;SDS011;16305;48.566;8.846;2022-10-31T02:49:48;10.00;;;7.23;;
29294;SDS011;16305;48.566;8.846;2022-10-31T02:52:25;12.57;;;7.47;;
29294;SDS011;16305;48.566;8.846;2022-10-31T02:54:53;11.87;;;7.03;;
29294;SDS011;16305;48.566;8.846;2022-10-31T02:57:23;9.67;;;6.10;;
29294;SDS011;16305;48.566;8.846;2022-10-31T02:59:50;13.33;;;6.90;;
29294;SDS011;16305;48.566;8.846;2022-10-31T03:02:25;7.47;;;6.00;;
29294;SDS011;16305;48.566;8.846;2022-10-31T03:10:54;12.93;;;6.43;;
29294;SDS011;16305;48.566;8.846;2022-10-31T03:15:56;8.00;;;6.37;;
29294;SDS011;16305;48.566;8.846;2022-10-31T03:19:04;12.97;;;7.20;;
29294;SDS011;16305;48.566;8.846;2022-10-31T03:21:35;11.43;;;6.77;;
29294;SDS011;16305;48.566;8.846;2022-10-31T03:24:01;10.00;;;6.87;;
29294;SDS011;16305;48.566;8.846;2022-10-31T03:26:29;12.50;;;7.10;;
29294;SDS011;16305;48.566;8.846;2022-10-31T03:29:03;10.23;;;7.20;;
29294;SDS011;16305;48.566;8.846;2022-10-31T03:31:53;13.30;;;7.10;;
29294;SDS011;16305;48.566;8.846;2022-10-31T03:34:20;10.10;;;6.73;;
29294;SDS011;16305;48.566;8.846;2022-10-31T03:36:47;9.93;;;6.60;;
29294;SDS011;16305;48.566;8.846;2022-10-31T03:39:15;10.77;;;6.80;;
29294;SDS011;16305;48.566;8.846;2022-10-31T03:41:45;9.53;;;7.67;;
29294;SDS011;16305;48.566;8.846;2022-10-31T03:44:19;11.27;;;6.43;;
29294;SDS011;16305;48.566;8.846;2022-10-31T03:46:46;11.57;;;6.90;;
29294;SDS011;16305;48.566;8.846;2022-10-31T03:49:12;13.07;;;6.60;;
29294;SDS011;16305;48.566;8.846;2022-10-31T03:51:46;10.40;;;6.50;;
29294;SDS011;16305;48.566;8.846;2022-10-31T03:56:52;9.53;;;7.33;;
29294;SDS011;16305;48.566;8.846;2022-10-31T03:59:23;10.53;;;7.47;;
29294;SDS011;16305;48.566;8.846;2022-10-31T04:01:56;12.87;;;7.10;;
29294;SDS011;16305;48.566;8.846;2022-10-31T04:04:26;14.00;;;7.83;;
29294;SDS011;16305;48.566;8.846;2022-10-31T04:06:53;12.13;;;7.50;;
29294;SDS011;16305;48.566;8.846;2022-10-31T04:09:21;12.47;;;7.17;;
29294;SDS011;16305;48.566;8.846;2022-10-31T04:11:49;10.83;;;7.80;;
29294;SDS011;16305;48.566;8.846;2022-10-31T04:14:17;11.47;;;7.50;;
29294;SDS011;16305;48.566;8.846;2022-10-31T04:16:43;10.57;;;6.97;;
29294;SDS011;16305;48.566;8.846;2022-10-31T04:19:10;12.67;;;7.33;;
29294;SDS011;16305;48.566;8.846;2022-10-31T04:21:36;11.43;;;7.30;;
29294;SDS011;16305;48.566;8.846;2022-10-31T04:24:02;16.27;;;7.80;;
29294;SDS011;16305;48.566;8.846;2022-10-31T04:26:27;15.60;;;8.20;;
29294;SDS011;16305;48.566;8.846;2022-10-31T04:28:53;10.47;;;7.27;;
29294;SDS011;16305;48.566;8.846;2022-10-31T04:31:18;12.60;;;7.30;;
29294;SDS011;16305;48.566;8.846;2022-10-31T04:33:44;14.23;;;7.63;;
29294;SDS011;16305;48.566;8.846;2022-10-31T04:36:10;10.40;;;7.40;;
29294;SDS011;16305;48.566;8.846;2022-10-31T04:38:36;15.37;;;6.77;;
29294;SDS011;16305;48.566;8.846;2022-10-31T04:41:01;8.23;;;6.53;;
29294;SDS011;16305;48.566;8.846;2022-10-31T04:43:27;12.97;;;6.50;;
29294;SDS011;16305;48.566;8.846;2022-10-31T04:45:52;10.53;;;6.77;;
29294;SDS011;16305;48.566;8.846;2022-10-31T04:48:18;10.90;;;7.47;;
29294;SDS011;16305;48.566;8.846;2022-10-31T04:50:43;8.37;;;6.50;;
29294;SDS011;16305;48.566;8.846;2022-10-31T04:53:09;10.37;;;6.10;;
29294;SDS011;16305;48.566;8.846;2022-10-31T04:55:35;9.33;;;6.67;;
29294;SDS011;16305;48.566;8.846;2022-10-31T04:58:01;8.87;;;6.53;;
29294;SDS011;16305;48.566;8.846;2022-10-31T05:00:27;12.87;;;7.20;;
29294;SDS011;16305;48.566;8.846;2022-10-31T05:02:54;10.20;;;7.10;;
29294;SDS011;16305;48.566;8.846;2022-10-31T05:05:23;10.83;;;6.70;;
29294;SDS011;16305;48.566;8.846;2022-10-31T05:07:56;10.97;;;6.53;;
29294;SDS011;16305;48.566;8.846;2022-10-31T05:10:25;12.23;;;6.43;;
29294;SDS011;16305;48.566;8.846;2022-10-31T05:12:54;12.80;;;6.03;;
29294;SDS011;16305;48.566;8.846;2022-10-31T05:15:25;10.00;;;5.27;;
29294;SDS011;16305;48.566;8.846;2022-10-31T05:17:52;8.03;;;6.50;;
29294;SDS011;16305;48.566;8.846;2022-10-31T05:20:19;13.60;;;6.33;;
29294;SDS011;16305;48.566;8.846;2022-10-31T05:22:51;11.53;;;6.80;;
29294;SDS011;16305;48.566;8.846;2022-10-31T05:25:18;10.80;;;7.07;;
29294;SDS011;16305;48.566;8.846;2022-10-31T05:27:45;9.50;;;6.57;;
29294;SDS011;16305;48.566;8.846;2022-10-31T05:30:14;10.37;;;7.47;;
29294;SDS011;16305;48.566;8.846;2022-10-31T05:32:42;17.97;;;7.23;;
29294;SDS011;16305;48.566;8.846;2022-10-31T05:35:10;10.53;;;7.43;;
29294;SDS011;16305;48.566;8.846;2022-10-31T05:37:38;11.53;;;7.00;;
29294;SDS011;16305;48.566;8.846;2022-10-31T05:40:04;6.37;;;5.67;;
29294;SDS011;16305;48.566;8.846;2022-10-31T05:42:32;6.63;;;5.03;;
29294;SDS011;16305;48.566;8.846;2022-10-31T05:44:58;13.23;;;6.53;;
29294;SDS011;16305;48.566;8.846;2022-10-31T05:47:23;13.83;;;7.93;;
29294;SDS011;16305;48.566;8.846;2022-10-31T05:49:49;15.57;;;9.73;;
29294;SDS011;16305;48.566;8.846;2022-10-31T05:52:15;18.53;;;10.37;;
29294;SDS011;16305;48.566;8.846;2022-10-31T05:54:41;16.83;;;8.20;;
29294;SDS011;16305;48.566;8.846;2022-10-31T05:57:06;10.50;;;7.97;;
29294;SDS011;16305;48.566;8.846;2022-10-31T05:59:32;11.77;;;8.83;;
29294;SDS011;16305;48.566;8.846;2022-10-31T06:01:57;17.17;;;8.90;;
29294;SDS011;16305;48.566;8.846;2022-10-31T06:04:23;13.10;;;8.40;;
29294;SDS011;16305;48.566;8.846;2022-10-31T06:06:48;13.93;;;8.27;;
29294;SDS011;16305;48.566;8.846;2022-10-31T06:09:14;17.17;;;8.33;;
29294;SDS011;16305;48.566;8.846;2022-10-31T06:11:40;11.03;;;8.30;;
29294;SDS011;16305;48.566;8.846;2022-10-31T06:14:05;20.77;;;8.00;;
29294;SDS011;16305;48.566;8.846;2022-10-31T06:16:31;9.43;;;6.87;;
29294;SDS011;16305;48.566;8.846;2022-10-31T06:18:57;10.83;;;7.53;;
29294;SDS011;16305;48.566;8.846;2022-10-31T06:21:22;10.43;;;7.03;;
29294;SDS011;16305;48.566;8.846;2022-10-31T06:23:48;12.07;;;7.00;;
29294;SDS011;16305;48.566;8.846;2022-10-31T06:26:14;10.87;;;6.47;;
29294;SDS011;16305;48.566;8.846;2022-10-31T06:28:39;11.53;;;6.73;;
29294;SDS011;16305;48.566;8.846;2022-10-31T06:31:05;10.07;;;6.93;;
29294;SDS011;16305;48.566;8.846;2022-10-31T06:33:30;8.73;;;6.67;;
29294;SDS011;16305;48.566;8.846;2022-10-31T06:35:56;8.40;;;5.70;;
29294;SDS011;16305;48.566;8.846;2022-10-31T06:38:22;9.03;;;5.23;;
29294;SDS011;16305;48.566;8.846;2022-10-31T06:40:47;6.80;;;4.90;;
29294;SDS011;16305;48.566;8.846;2022-10-31T06:43:13;8.67;;;4.30;;
29294;SDS011;16305;48.566;8.846;2022-10-31T06:45:39;6.73;;;4.87;;
29294;SDS011;16305;48.566;8.846;2022-10-31T06:48:05;11.23;;;5.53;;
29294;SDS011;16305;48.566;8.846;2022-10-31T06:50:31;9.70;;;5.57;;
29294;SDS011;16305;48.566;8.846;2022-10-31T06:52:57;6.30;;;4.90;;
29294;SDS011;16305;48.566;8.846;2022-10-31T06:55:23;9.47;;;4.70;;
29294;SDS011;16305;48.566;8.846;2022-10-31T06:57:57;10.97;;;5.40;;
29294;SDS011;16305;48.566;8.846;2022-10-31T07:00:24;10.83;;;6.00;;
29294;SDS011;16305;48.566;8.846;2022-10-31T07:02:54;6.87;;;5.40;;
29294;SDS011;16305;48.566;8.846;2022-10-31T07:05:20;8.33;;;5.93;;
29294;SDS011;16305;48.566;8.846;2022-10-31T07:07:45;9.37;;;5.83;;
29294;SDS011;16305;48.566;8.846;2022-10-31T07:10:11;8.77;;;5.60;;
29294;SDS011;16305;48.566;8.846;2022-10-31T07:12:36;8.27;;;5.70;;
29294;SDS011;16305;48.566;8.846;2022-10-31T07:15:02;16.63;;;7.33;;
29294;SDS011;16305;48.566;8.846;2022-10-31T07:17:29;20.33;;;8.27;;
29294;SDS011;16305;48.566;8.846;2022-10-31T07:19:54;14.83;;;7.73;;
29294;SDS011;16305;48.566;8.846;2022-10-31T07:22:20;14.43;;;7.77;;
29294;SDS011;16305;48.566;8.846;2022-10-31T07:24:45;11.10;;;6.37;;
29294;SDS011;16305;48.566;8.846;2022-10-31T07:27:11;9.77;;;5.47;;
29294;SDS011;16305;48.566;8.846;2022-10-31T07:29:36;6.27;;;5.13;;
29294;SDS011;16305;48.566;8.846;2022-10-31T07:32:02;8.27;;;5.17;;
29294;SDS011;16305;48.566;8.846;2022-10-31T07:34:27;9.67;;;4.93;;
29294;SDS011;16305;48.566;8.846;2022-10-31T07:36:53;6.47;;;5.07;;
29294;SDS011;16305;48.566;8.846;2022-10-31T07:39:19;7.07;;;4.47;;
29294;SDS011;16305;48.566;8.846;2022-10-31T07:41:44;9.13;;;5.27;;
29294;SDS011;16305;48.566;8.846;2022-10-31T07:44:10;10.10;;;4.77;;
29294;SDS011;16305;48.566;8.846;2022-10-31T07:46:35;7.43;;;4.67;;
29294;SDS011;16305;48.566;8.846;2022-10-31T07:49:01;8.27;;;4.50;;
29294;SDS011;16305;48.566;8.846;2022-10-31T07:51:26;9.80;;;4.63;;
29294;SDS011;16305;48.566;8.846;2022-10-31T07:53:52;9.30;;;5.10;;
29294;SDS011;16305;48.566;8.846;2022-10-31T07:56:17;5.77;;;5.00;;
29294;SDS011;16305;48.566;8.846;2022-10-31T07:58:43;8.03;;;5.00;;
29294;SDS011;16305;48.566;8.846;2022-10-31T08:01:08;6.40;;;5.10;;
29294;SDS011;16305;48.566;8.846;2022-10-31T08:03:34;10.00;;;5.30;;
29294;SDS011;16305;48.566;8.846;2022-10-31T08:05:59;6.17;;;5.07;;
29294;SDS011;16305;48.566;8.846;2022-10-31T08:08:25;7.67;;;5.47;;
29294;SDS011;16305;48.566;8.846;2022-10-31T08:10:52;7.50;;;5.27;;
29294;SDS011;16305;48.566;8.846;2022-10-31T08:13:18;8.73;;;5.77;;
29294;SDS011;16305;48.566;8.846;2022-10-31T08:15:44;9.17;;;5.13;;
29294;SDS011;16305;48.566;8.846;2022-10-31T08:18:14;7.20;;;5.77;;
29294;SDS011;16305;48.566;8.846;2022-10-31T08:20:41;9.23;;;5.77;;
29294;SDS011;16305;48.566;8.846;2022-10-31T08:23:08;9.43;;;4.77;;
29294;SDS011;16305;48.566;8.846;2022-10-31T08:25:34;8.63;;;4.93;;
29294;SDS011;16305;48.566;8.846;2022-10-31T08:28:01;7.33;;;5.30;;
29294;SDS011;16305;48.566;8.846;2022-10-31T08:30:30;8.67;;;5.67;;
29294;SDS011;16305;48.566;8.846;2022-10-31T08:33:01;9.80;;;5.33;;
29294;SDS011;16305;48.566;8.846;2022-10-31T08:35:31;10.67;;;5.63;;
29294;SDS011;16305;48.566;8.846;2022-10-31T08:37:57;8.43;;;5.73;;
29294;SDS011;16305;48.566;8.846;2022-10-31T08:40:23;10.17;;;5.97;;
29294;SDS011;16305;48.566;8.846;2022-10-31T08:45:29;11.00;;;5.27;;
29294;SDS011;16305;48.566;8.846;2022-10-31T08:47:59;9.37;;;5.77;;
29294;SDS011;16305;48.566;8.846;2022-10-31T08:50:26;11.73;;;6.23;;
29294;SDS011;16305;48.566;8.846;2022-10-31T08:52:52;10.60;;;6.00;;
29294;SDS011;16305;48.566;8.846;2022-10-31T08:55:18;11.30;;;6.17;;
29294;SDS011;16305;48.566;8.846;2022-10-31T08:57:44;14.97;;;6.33;;
29294;SDS011;16305;48.566;8.846;2022-10-31T09:00:09;10.73;;;5.60;;
29294;SDS011;16305;48.566;8.846;2022-10-31T09:02:35;8.07;;;5.03;;
29294;SDS011;16305;48.566;8.846;2022-10-31T09:05:02;8.90;;;5.67;;
29294;SDS011;16305;48.566;8.846;2022-10-31T09:07:27;8.93;;;6.03;;
29294;SDS011;16305;48.566;8.846;2022-10-31T09:09:53;7.87;;;6.23;;
29294;SDS011;16305;48.566;8.846;2022-10-31T09:12:20;11.77;;;6.60;;
29294;SDS011;16305;48.566;8.846;2022-10-31T09:14:46;10.63;;;6.57;;
29294;SDS011;16305;48.566;8.846;2022-10-31T09:17:11;9.53;;;6.87;;
29294;SDS011;16305;48.566;8.846;2022-10-31T09:19:37;12.27;;;6.67;;
29294;SDS011;16305;48.566;8.846;2022-10-31T09:22:02;11.20;;;6.27;;
29294;SDS011;16305;48.566;8.846;2022-10-31T09:24:28;9.00;;;5.80;;
29294;SDS011;16305;48.566;8.846;2022-10-31T09:26:53;11.17;;;5.70;;
29294;SDS011;16305;48.566;8.846;2022-10-31T09:29:19;9.70;;;6.20;;
29294;SDS011;16305;48.566;8.846;2022-10-31T09:31:44;6.70;;;5.20;;
29294;SDS011;16305;48.566;8.846;2022-10-31T09:34:10;13.53;;;6.17;;
29294;SDS011;16305;48.566;8.846;2022-10-31T09:36:36;12.87;;;5.70;;
29294;SDS011;16305;48.566;8.846;2022-10-31T09:39:03;8.77;;;5.10;;
29294;SDS011;16305;48.566;8.846;2022-10-31T09:41:31;11.97;;;5.80;;
29294;SDS011;16305;48.566;8.846;2022-10-31T09:44:23;8.67;;;5.77;;
29294;SDS011;16305;48.566;8.846;2022-10-31T09:52:24;10.83;;;4.90;;
29294;SDS011;16305;48.566;8.846;2022-10-31T09:55:00;7.07;;;5.30;;
29294;SDS011;16305;48.566;8.846;2022-10-31T09:57:30;8.17;;;4.63;;
29294;SDS011;16305;48.566;8.846;2022-10-31T09:59:58;14.73;;;4.87;;
29294;SDS011;16305;48.566;8.846;2022-10-31T10:02:38;6.63;;;4.73;;
29294;SDS011;16305;48.566;8.846;2022-10-31T10:05:10;10.40;;;5.73;;
29294;SDS011;16305;48.566;8.846;2022-10-31T10:07:40;7.50;;;4.73;;
29294;SDS011;16305;48.566;8.846;2022-10-31T10:10:14;7.37;;;5.13;;
29294;SDS011;16305;48.566;8.846;2022-10-31T10:18:12;14.23;;;5.77;;
29294;SDS011;16305;48.566;8.846;2022-10-31T10:20:56;9.80;;;5.83;;
29294;SDS011;16305;48.566;8.846;2022-10-31T10:26:20;6.77;;;5.10;;
29294;SDS011;16305;48.566;8.846;2022-10-31T10:28:49;9.43;;;5.73;;
29294;SDS011;16305;48.566;8.846;2022-10-31T10:31:25;9.23;;;5.27;;
29294;SDS011;16305;48.566;8.846;2022-10-31T10:34:01;7.13;;;5.30;;
29294;SDS011;16305;48.566;8.846;2022-10-31T10:36:38;7.67;;;5.43;;
29294;SDS011;16305;48.566;8.846;2022-10-31T10:39:13;8.80;;;5.80;;
29294;SDS011;16305;48.566;8.846;2022-10-31T10:41:48;7.60;;;6.07;;
29294;SDS011;16305;48.566;8.846;2022-10-31T10:44:35;12.60;;;6.47;;
29294;SDS011;16305;48.566;8.846;2022-10-31T10:47:23;10.97;;;6.23;;
29294;SDS011;16305;48.566;8.846;2022-10-31T10:50:10;12.13;;;5.13;;
29294;SDS011;16305;48.566;8.846;2022-10-31T10:58:13;6.07;;;5.20;;
29294;SDS011;16305;48.566;8.846;2022-10-31T11:00:43;10.33;;;4.70;;
29294;SDS011;16305;48.566;8.846;2022-10-31T11:03:14;11.50;;;5.63;;
29294;SDS011;16305;48.566;8.846;2022-10-31T11:05:51;12.63;;;5.77;;
29294;SDS011;16305;48.566;8.846;2022-10-31T11:08:26;10.33;;;6.37;;
29294;SDS011;16305;48.566;8.846;2022-10-31T11:11:00;9.37;;;5.70;;
29294;SDS011;16305;48.566;8.846;2022-10-31T11:13:32;8.47;;;5.80;;
29294;SDS011;16305;48.566;8.846;2022-10-31T11:16:03;8.30;;;6.20;;
29294;SDS011;16305;48.566;8.846;2022-10-31T11:18:32;11.03;;;6.30;;
29294;SDS011;16305;48.566;8.846;2022-10-31T11:21:02;9.30;;;5.27;;
29294;SDS011;16305;48.566;8.846;2022-10-31T11:23:29;7.67;;;5.63;;
29294;SDS011;16305;48.566;8.846;2022-10-31T11:28:29;9.70;;;4.80;;
29294;SDS011;16305;48.566;8.846;2022-10-31T11:31:05;10.10;;;5.00;;
29294;SDS011;16305;48.566;8.846;2022-10-31T11:33:34;10.90;;;5.10;;
29294;SDS011;16305;48.566;8.846;2022-10-31T11:36:03;5.73;;;4.47;;
29294;SDS011;16305;48.566;8.846;2022-10-31T11:38:43;7.57;;;4.83;;
29294;SDS011;16305;48.566;8.846;2022-10-31T11:41:16;7.27;;;4.63;;
29294;SDS011;16305;48.566;8.846;2022-10-31T11:44:04;6.23;;;4.37;;
29294;SDS011;16305;48.566;8.846;2022-10-31T11:46:39;8.63;;;4.97;;
29294;SDS011;16305;48.566;8.846;2022-10-31T11:49:18;11.73;;;5.50;;
29294;SDS011;16305;48.566;8.846;2022-10-31T11:51:52;10.57;;;5.33;;
29294;SDS011;16305;48.566;8.846;2022-10-31T11:54:30;9.40;;;4.83;;
29294;SDS011;16305;48.566;8.846;2022-10-31T11:56:59;7.60;;;4.87;;
29294;SDS011;16305;48.566;8.846;2022-10-31T11:59:28;8.43;;;4.90;;
29294;SDS011;16305;48.566;8.846;2022-10-31T12:01:57;7.50;;;5.07;;
29294;SDS011;16305;48.566;8.846;2022-10-31T12:07:10;9.43;;;5.03;;
29294;SDS011;16305;48.566;8.846;2022-10-31T12:09:36;8.90;;;5.10;;
29294;SDS011;16305;48.566;8.846;2022-10-31T12:14:34;7.87;;;4.80;;
29294;SDS011;16305;48.566;8.846;2022-10-31T12:17:08;7.10;;;5.80;;
29294;SDS011;16305;48.566;8.846;2022-10-31T12:25:35;9.90;;;6.30;;
29294;SDS011;16305;48.566;8.846;2022-10-31T12:28:24;9.07;;;5.63;;
29294;SDS011;16305;48.566;8.846;2022-10-31T12:36:53;8.30;;;6.23;;
29294;SDS011;16305;48.566;8.846;2022-10-31T12:39:43;9.53;;;5.90;;
29294;SDS011;16305;48.566;8.846;2022-10-31T12:53:13;10.13;;;6.17;;
29294;SDS011;16305;48.566;8.846;2022-10-31T12:59:01;10.37;;;6.27;;
29294;SDS011;16305;48.566;8.846;2022-10-31T13:01:45;10.57;;;6.27;;
29294;SDS011;16305;48.566;8.846;2022-10-31T13:04:21;13.53;;;6.20;;
29294;SDS011;16305;48.566;8.846;2022-10-31T13:07:05;13.73;;;7.17;;
29294;SDS011;16305;48.566;8.846;2022-10-31T13:09:38;16.97;;;7.57;;
29294;SDS011;16305;48.566;8.846;2022-10-31T13:12:11;11.50;;;6.57;;
29294;SDS011;16305;48.566;8.846;2022-10-31T13:14:41;9.00;;;4.83;;
29294;SDS011;16305;48.566;8.846;2022-10-31T13:17:18;12.60;;;5.33;;
29294;SDS011;16305;48.566;8.846;2022-10-31T13:20:12;10.77;;;4.77;;
29294;SDS011;16305;48.566;8.846;2022-10-31T13:22:46;12.17;;;4.53;;
29294;SDS011;16305;48.566;8.846;2022-10-31T13:25:16;8.57;;;5.47;;
29294;SDS011;16305;48.566;8.846;2022-10-31T13:28:09;6.17;;;4.00;;
29294;SDS011;16305;48.566;8.846;2022-10-31T13:30:44;11.23;;;4.40;;
29294;SDS011;16305;48.566;8.846;2022-10-31T13:33:53;12.27;;;4.97;;
29294;SDS011;16305;48.566;8.846;2022-10-31T13:36:18;8.13;;;4.30;;
29294;SDS011;16305;48.566;8.846;2022-10-31T13:39:17;8.37;;;3.77;;
29294;SDS011;16305;48.566;8.846;2022-10-31T13:42:21;7.10;;;3.40;;
29294;SDS011;16305;48.566;8.846;2022-10-31T13:44:38;9.23;;;3.97;;
29294;SDS011;16305;48.566;8.846;2022-10-31T13:47:20;9.27;;;4.20;;
29294;SDS011;16305;48.566;8.846;2022-10-31T13:49:46;7.30;;;4.25;;
29294;SDS011;16305;48.566;8.846;2022-10-31T13:52:13;7.45;;;4.55;;
29294;SDS011;16305;48.566;8.846;2022-10-31T13:57:50;8.38;;;4.35;;
29294;SDS011;16305;48.566;8.846;2022-10-31T14:00:01;8.10;;;4.40;;
29294;SDS011;16305;48.566;8.846;2022-10-31T14:02:50;7.88;;;4.18;;
29294;SDS011;16305;48.566;8.846;2022-10-31T14:05:26;7.65;;;4.07;;
29294;SDS011;16305;48.566;8.846;2022-10-31T14:07:55;7.07;;;4.10;;
29294;SDS011;16305;48.566;8.846;2022-10-31T14:10:26;7.90;;;4.32;;
29294;SDS011;16305;48.566;8.846;2022-10-31T14:13:17;5.45;;;3.65;;
29294;SDS011;16305;48.566;8.846;2022-10-31T14:15:51;7.40;;;3.85;;
29294;SDS011;16305;48.566;8.846;2022-10-31T14:18:22;6.13;;;3.53;;
29294;SDS011;16305;48.566;8.846;2022-10-31T14:20:50;5.72;;;3.42;;
29294;SDS011;16305;48.566;8.846;2022-10-31T14:25:53;5.55;;;3.13;;
29294;SDS011;16305;48.566;8.846;2022-10-31T14:28:31;3.97;;;3.15;;
29294;SDS011;16305;48.566;8.846;2022-10-31T14:30:59;5.43;;;3.40;;
29294;SDS011;16305;48.566;8.846;2022-10-31T14:33:25;6.55;;;3.88;;
29294;SDS011;16305;48.566;8.846;2022-10-31T14:38:29;6.95;;;3.60;;
29294;SDS011;16305;48.566;8.846;2022-10-31T14:43:57;6.43;;;3.80;;
29294;SDS011;16305;48.566;8.846;2022-10-31T14:49:12;7.82;;;4.70;;
29294;SDS011;16305;48.566;8.846;2022-10-31T14:51:58;7.43;;;4.80;;
29294;SDS011;16305;48.566;8.846;2022-10-31T14:54:31;8.83;;;4.67;;
29294;SDS011;16305;48.566;8.846;2022-10-31T14:57:04;7.63;;;4.73;;
29294;SDS011;16305;48.566;8.846;2022-10-31T14:59:40;10.37;;;5.50;;
29294;SDS011;16305;48.566;8.846;2022-10-31T15:02:26;14.67;;;5.73;;
29294;SDS011;16305;48.566;8.846;2022-10-31T15:05:10;9.07;;;5.83;;
29294;SDS011;16305;48.566;8.846;2022-10-31T15:07:36;10.67;;;6.00;;
29294;SDS011;16305;48.566;8.846;2022-10-31T15:10:31;13.67;;;5.70;;
29294;SDS011;16305;48.566;8.846;2022-10-31T15:15:56;9.63;;;5.93;;
29294;SDS011;16305;48.566;8.846;2022-10-31T15:18:25;12.07;;;6.07;;
29294;SDS011;16305;48.566;8.846;2022-10-31T15:20:53;12.90;;;5.73;;
29294;SDS011;16305;48.566;8.846;2022-10-31T15:23:21;11.87;;;5.80;;
29294;SDS011;16305;48.566;8.846;2022-10-31T15:25:50;11.50;;;6.20;;
29294;SDS011;16305;48.566;8.846;2022-10-31T15:28:23;8.17;;;5.30;;
29294;SDS011;16305;48.566;8.846;2022-10-31T15:30:50;9.10;;;5.20;;
29294;SDS011;16305;48.566;8.846;2022-10-31T15:33:19;8.33;;;4.90;;
29294;SDS011;16305;48.566;8.846;2022-10-31T15:35:54;9.17;;;6.10;;
29294;SDS011;16305;48.566;8.846;2022-10-31T15:38:27;7.43;;;5.27;;
29294;SDS011;16305;48.566;8.846;2022-10-31T15:40:55;6.63;;;4.90;;
29294;SDS011;16305;48.566;8.846;2022-10-31T15:43:43;13.60;;;5.53;;
29294;SDS011;16305;48.566;8.846;2022-10-31T15:46:10;10.57;;;5.57;;
29294;SDS011;16305;48.566;8.846;2022-10-31T15:48:36;15.53;;;5.63;;
29294;SDS011;16305;48.566;8.846;2022-10-31T15:51:03;12.30;;;5.83;;
29294;SDS011;16305;48.566;8.846;2022-10-31T15:53:37;13.80;;;5.60;;
29294;SDS011;16305;48.566;8.846;2022-10-31T15:56:10;10.07;;;6.57;;
29294;SDS011;16305;48.566;8.846;2022-10-31T15:58:41;11.30;;;5.60;;
29294;SDS011;16305;48.566;8.846;2022-10-31T16:06:35;14.10;;;5.83;;
29294;SDS011;16305;48.566;8.846;2022-10-31T16:09:01;9.13;;;5.53;;
29294;SDS011;16305;48.566;8.846;2022-10-31T16:11:33;12.43;;;6.20;;
29294;SDS011;16305;48.566;8.846;2022-10-31T16:14:22;12.03;;;6.90;;
29294;SDS011;16305;48.566;8.846;2022-10-31T16:16:51;13.67;;;6.37;;
29294;SDS011;16305;48.566;8.846;2022-10-31T16:19:20;10.43;;;5.70;;
29294;SDS011;16305;48.566;8.846;2022-10-31T16:21:49;13.00;;;6.40;;
29294;SDS011;16305;48.566;8.846;2022-10-31T16:24:21;12.60;;;5.90;;
29294;SDS011;16305;48.566;8.846;2022-10-31T16:26:51;14.13;;;6.30;;
29294;SDS011;16305;48.566;8.846;2022-10-31T16:29:26;11.57;;;6.30;;
29294;SDS011;16305;48.566;8.846;2022-10-31T16:31:53;10.07;;;6.37;;
29294;SDS011;16305;48.566;8.846;2022-10-31T16:34:20;10.93;;;6.17;;
29294;SDS011;16305;48.566;8.846;2022-10-31T16:36:47;12.80;;;6.77;;
29294;SDS011;16305;48.566;8.846;2022-10-31T16:39:13;11.47;;;6.83;;
29294;SDS011;16305;48.566;8.846;2022-10-31T16:41:42;15.43;;;7.53;;
29294;SDS011;16305;48.566;8.846;2022-10-31T16:44:15;17.67;;;7.40;;
29294;SDS011;16305;48.566;8.846;2022-10-31T16:46:44;15.00;;;8.70;;